createdAt,value
2023-12-09T00:00:46.196Z,87.93
2023-12-09T00:03:12.929Z,88.07
2023-12-09T00:05:39.824Z,88.35
2023-12-09T00:08:06.779Z,88.46
2023-12-09T00:10:33.474Z,88.63
2023-12-09T00:13:03.966Z,88.55
2023-12-09T00:15:33.862Z,88.84
2023-12-09T00:18:03.166Z,89.29
2023-12-09T00:20:30.453Z,89.58
2023-12-09T00:22:57.432Z,90.00
2023-12-09T00:25:24.276Z,89.84
2023-12-09T00:27:51.457Z,90.01
2023-12-09T00:30:18.340Z,90.37
2023-12-09T00:32:45.830Z,90.07
2023-12-09T00:35:16.057Z,90.20
2023-12-09T00:37:42.796Z,90.17
2023-12-09T00:40:10.018Z,90.06
2023-12-09T00:42:36.731Z,90.07
2023-12-09T00:45:03.755Z,90.04
2023-12-09T00:47:30.287Z,89.77
2023-12-09T00:49:57.438Z,89.89
2023-12-09T00:52:25.610Z,89.73
2023-12-09T00:54:52.683Z,89.61
2023-12-09T00:57:22.434Z,89.90
2023-12-09T00:59:49.126Z,89.63
2023-12-09T01:02:15.959Z,89.59
2023-12-09T01:04:44.089Z,89.91
2023-12-09T01:07:11.651Z,89.72
2023-12-09T01:09:38.321Z,89.75
2023-12-09T01:12:06.351Z,89.63
2023-12-09T01:14:33.388Z,89.55
2023-12-09T01:17:00.246Z,89.58
2023-12-09T01:19:27.052Z,89.46
2023-12-09T01:21:54.489Z,89.31
2023-12-09T01:24:21.319Z,89.24
2023-12-09T01:26:48.093Z,89.52
2023-12-09T01:29:14.790Z,89.34
2023-12-09T01:31:42.512Z,89.15
2023-12-09T01:34:11.054Z,88.91
2023-12-09T01:36:38.090Z,88.42
2023-12-09T01:39:04.795Z,88.59
2023-12-09T01:41:32.903Z,88.37
2023-12-09T01:43:59.662Z,88.34
2023-12-09T01:46:27.413Z,88.45
2023-12-09T01:48:54.225Z,88.20
2023-12-09T01:51:22.495Z,88.58
2023-12-09T01:53:49.576Z,88.58
2023-12-09T01:56:18.936Z,88.29
2023-12-09T01:58:45.895Z,88.51
2023-12-09T02:01:13.752Z,88.53
2023-12-09T02:03:41.160Z,88.61
2023-12-09T02:06:08.400Z,88.57
2023-12-09T02:08:37.612Z,88.96
2023-12-09T02:11:27.252Z,89.36
2023-12-09T02:14:08.665Z,89.19
2023-12-09T02:16:42.956Z,89.14
2023-12-09T02:19:15.112Z,89.58
2023-12-09T02:22:05.337Z,89.24
2023-12-09T02:24:33.152Z,89.21
2023-12-09T02:27:14.580Z,88.85
2023-12-09T02:30:02.801Z,89.35
2023-12-09T02:32:34.022Z,89.12
2023-12-09T02:35:03.860Z,89.08
2023-12-09T02:37:33.569Z,89.49
2023-12-09T02:40:02.352Z,89.52
2023-12-09T02:42:30.600Z,89.42
2023-12-09T02:45:11.802Z,89.58
2023-12-09T02:47:39.038Z,89.67
2023-12-09T02:50:06.700Z,89.68
2023-12-09T02:52:35.257Z,89.91
2023-12-09T02:55:02.293Z,90.18
2023-12-09T02:57:35.694Z,89.82
2023-12-09T03:00:02.541Z,90.48
2023-12-09T03:02:30.076Z,90.42
2023-12-09T03:04:58.060Z,91.08
2023-12-09T03:07:27.042Z,90.89
2023-12-09T03:09:53.678Z,90.68
2023-12-09T03:12:23.233Z,91.10
2023-12-09T03:14:55.549Z,90.57
2023-12-09T03:17:23.805Z,90.90
2023-12-09T03:19:52.504Z,90.87
2023-12-09T03:22:24.187Z,90.80
2023-12-09T03:24:51.664Z,91.09
2023-12-09T03:27:18.379Z,91.23
2023-12-09T03:29:45.051Z,91.54
2023-12-09T03:32:11.782Z,91.03
2023-12-09T03:34:38.660Z,90.96
2023-12-09T03:37:05.332Z,90.89
2023-12-09T03:39:32.162Z,91.18
2023-12-09T03:41:58.958Z,90.73
2023-12-09T03:44:28.470Z,90.81
2023-12-09T03:46:55.181Z,90.54
2023-12-09T03:49:22.760Z,90.76
2023-12-09T03:51:49.620Z,90.82
2023-12-09T03:54:16.510Z,90.72
2023-12-09T03:56:43.223Z,90.49
2023-12-09T03:59:10.112Z,90.60
2023-12-09T04:01:37.076Z,90.76
2023-12-09T04:04:04.069Z,91.14
2023-12-09T04:06:31.065Z,91.00
2023-12-09T04:08:57.808Z,90.89
2023-12-09T04:11:24.636Z,90.95
2023-12-09T04:13:51.442Z,91.26
2023-12-09T04:16:18.245Z,91.49
2023-12-09T04:18:46.583Z,91.70
2023-12-09T04:21:13.526Z,91.42
2023-12-09T04:23:42.866Z,90.96
2023-12-09T04:26:11.607Z,91.32
2023-12-09T04:28:39.212Z,91.00
2023-12-09T04:31:09.350Z,90.86
2023-12-09T04:33:36.261Z,90.82
2023-12-09T04:36:04.586Z,90.81
2023-12-09T04:38:31.388Z,90.56
2023-12-09T04:40:58.306Z,90.72
2023-12-09T04:43:25.447Z,90.57
2023-12-09T04:45:52.936Z,91.88
2023-12-09T04:48:20.284Z,92.08
2023-12-09T04:50:47.248Z,92.81
2023-12-09T04:53:14.132Z,92.88
2023-12-09T04:55:42.958Z,92.65
2023-12-09T04:58:09.807Z,92.62
2023-12-09T05:00:36.573Z,92.72
2023-12-09T05:03:06.359Z,92.97
2023-12-09T05:05:33.281Z,93.15
2023-12-09T05:08:00.879Z,93.31
2023-12-09T05:10:27.681Z,93.34
2023-12-09T05:12:55.135Z,92.64
2023-12-09T05:15:22.041Z,92.81
2023-12-09T05:17:50.139Z,92.36
2023-12-09T05:20:17.193Z,92.39
2023-12-09T05:22:44.346Z,92.32
2023-12-09T05:25:11.165Z,92.43
2023-12-09T05:27:39.305Z,92.51
2023-12-09T05:30:07.101Z,92.10
2023-12-09T05:32:33.850Z,92.35
2023-12-09T05:35:00.702Z,91.96
2023-12-09T05:37:29.145Z,91.77
2023-12-09T05:39:58.433Z,91.67
2023-12-09T05:42:25.569Z,91.54
2023-12-09T05:44:53.982Z,91.79
2023-12-09T05:47:21.071Z,91.46
2023-12-09T05:49:47.984Z,91.88
2023-12-09T05:52:14.732Z,91.76
2023-12-09T05:54:41.420Z,91.54
2023-12-09T05:57:08.296Z,91.68
2023-12-09T05:59:35.021Z,91.87
2023-12-09T06:02:01.712Z,91.59
2023-12-09T06:04:29.106Z,91.25
2023-12-09T06:06:56.154Z,91.46
2023-12-09T06:09:23.400Z,91.58
2023-12-09T06:11:50.332Z,91.37
2023-12-09T06:14:17.843Z,90.92
2023-12-09T06:16:51.527Z,90.81
2023-12-09T06:19:19.655Z,91.21
2023-12-09T06:21:47.043Z,91.22
2023-12-09T06:24:17.520Z,91.24
2023-12-09T06:26:47.151Z,91.47
2023-12-09T06:29:16.143Z,91.32
2023-12-09T06:31:43.106Z,91.05
2023-12-09T06:34:10.308Z,91.51
2023-12-09T06:36:37.584Z,91.24
2023-12-09T06:39:06.693Z,91.65
2023-12-09T06:41:33.753Z,92.04
2023-12-09T06:44:00.515Z,91.63
2023-12-09T06:46:27.402Z,91.01
2023-12-09T06:48:54.412Z,91.25
2023-12-09T06:51:22.131Z,91.47
2023-12-09T06:53:49.746Z,91.80
2023-12-09T06:56:23.188Z,92.21
2023-12-09T06:58:50.509Z,92.13
2023-12-09T07:01:29.702Z,92.21
2023-12-09T07:03:57.460Z,91.70
2023-12-09T07:06:26.057Z,91.87
2023-12-09T07:08:54.892Z,91.69
2023-12-09T07:11:23.539Z,91.56
2023-12-09T07:13:51.286Z,91.68
2023-12-09T07:16:18.091Z,91.47
2023-12-09T07:18:47.553Z,91.46
2023-12-09T07:21:15.776Z,91.51
2023-12-09T07:23:42.871Z,91.82
2023-12-09T07:26:09.501Z,91.57
2023-12-09T07:28:36.736Z,91.32
2023-12-09T07:31:04.033Z,92.02
2023-12-09T07:33:30.934Z,91.97
2023-12-09T07:35:57.756Z,91.91
2023-12-09T07:38:24.474Z,92.06
2023-12-09T07:40:57.775Z,91.92
2023-12-09T07:43:25.642Z,91.87
2023-12-09T07:45:53.405Z,91.68
2023-12-09T07:48:20.663Z,91.89
2023-12-09T07:50:48.485Z,91.65
2023-12-09T07:53:15.427Z,91.38
2023-12-09T07:55:42.679Z,91.26
2023-12-09T07:58:09.573Z,90.88
2023-12-09T08:00:37.298Z,91.04
2023-12-09T08:03:06.398Z,90.69
2023-12-09T08:05:38.381Z,90.55
2023-12-09T08:08:05.493Z,90.25
2023-12-09T08:10:32.693Z,90.42
2023-12-09T08:13:01.319Z,90.09
2023-12-09T08:15:28.254Z,90.30
2023-12-09T08:17:55.164Z,90.13
2023-12-09T08:20:25.025Z,89.85
2023-12-09T08:22:52.197Z,89.89
2023-12-09T08:25:19.224Z,89.70
2023-12-09T08:27:47.058Z,90.07
2023-12-09T08:30:14.264Z,89.89
2023-12-09T08:32:46.387Z,89.88
2023-12-09T08:35:13.573Z,89.65
2023-12-09T08:37:40.854Z,89.36
2023-12-09T08:40:13.779Z,89.39
2023-12-09T08:42:45.274Z,89.61
2023-12-09T08:45:18.154Z,90.07
2023-12-09T08:47:45.888Z,89.54
2023-12-09T08:50:22.511Z,89.83
2023-12-09T08:52:53.469Z,90.17
2023-12-09T08:55:20.555Z,90.11
2023-12-09T08:57:47.674Z,89.81
2023-12-09T09:00:17.359Z,89.65
2023-12-09T09:02:44.032Z,89.64
2023-12-09T09:05:11.583Z,89.49
2023-12-09T09:07:41.834Z,88.97
2023-12-09T09:10:09.503Z,89.11
2023-12-09T09:12:36.140Z,89.33
2023-12-09T09:15:06.798Z,88.42
2023-12-09T09:17:36.735Z,88.55
2023-12-09T09:20:04.514Z,88.56
2023-12-09T09:22:31.283Z,88.53
2023-12-09T09:24:59.488Z,88.55
2023-12-09T09:27:27.267Z,88.27
2023-12-09T09:29:54.729Z,88.79
2023-12-09T09:32:22.834Z,88.60
2023-12-09T09:34:49.936Z,87.09
2023-12-09T09:37:16.809Z,86.42
2023-12-09T09:39:43.527Z,86.48
2023-12-09T09:42:29.282Z,85.96
2023-12-09T09:45:19.971Z,85.80
2023-12-09T09:47:49.392Z,85.14
2023-12-09T09:50:26.909Z,85.26
2023-12-09T09:52:55.108Z,84.38
2023-12-09T09:55:22.938Z,84.81
2023-12-09T09:57:50.671Z,82.69
2023-12-09T10:00:20.934Z,82.14
2023-12-09T10:02:55.331Z,82.38
2023-12-09T10:05:23.799Z,82.08
2023-12-09T10:07:50.742Z,82.46
2023-12-09T10:10:23.881Z,82.17
2023-12-09T10:12:50.937Z,80.93
2023-12-09T10:15:20.840Z,81.08
2023-12-09T10:17:48.985Z,81.43
2023-12-09T10:20:16.995Z,80.90
2023-12-09T10:22:44.231Z,82.82
2023-12-09T10:25:11.354Z,83.22
2023-12-09T10:27:43.011Z,81.21
2023-12-09T10:30:11.073Z,82.11
2023-12-09T10:32:39.337Z,81.46
2023-12-09T10:35:06.917Z,80.77
2023-12-09T10:37:34.459Z,80.92
2023-12-09T10:40:04.977Z,81.14
2023-12-09T10:42:32.802Z,80.70
2023-12-09T10:45:03.702Z,80.91
2023-12-09T10:47:31.269Z,80.37
2023-12-09T10:49:58.371Z,81.44
2023-12-09T10:52:25.282Z,80.56
2023-12-09T10:54:52.026Z,80.60
2023-12-09T10:57:20.865Z,81.11
2023-12-09T10:59:47.462Z,81.26
2023-12-09T11:02:15.786Z,81.26
2023-12-09T11:04:43.679Z,79.67
2023-12-09T11:07:11.208Z,79.86
2023-12-09T11:09:41.655Z,80.31
2023-12-09T11:12:09.499Z,79.92
2023-12-09T11:14:38.701Z,80.23
2023-12-09T11:17:35.953Z,80.94
2023-12-09T11:20:11.716Z,81.04
2023-12-09T11:22:39.903Z,80.85
2023-12-09T11:25:08.983Z,81.04
2023-12-09T11:27:38.001Z,80.72
2023-12-09T11:30:06.661Z,80.26
2023-12-09T11:32:34.186Z,79.86
2023-12-09T11:35:02.742Z,79.87
2023-12-09T11:37:31.346Z,79.45
2023-12-09T11:39:58.435Z,79.72
2023-12-09T11:42:26.668Z,79.79
2023-12-09T11:44:53.708Z,79.41
2023-12-09T11:47:20.558Z,79.53
2023-12-09T11:49:48.320Z,79.52
2023-12-09T11:52:15.752Z,79.83
2023-12-09T11:54:42.577Z,78.92
2023-12-09T11:57:09.379Z,78.54
2023-12-09T11:59:37.808Z,78.12
2023-12-09T12:02:04.707Z,78.62
2023-12-09T12:04:37.500Z,78.92
2023-12-09T12:07:05.553Z,78.78
2023-12-09T12:09:32.186Z,78.83
2023-12-09T12:11:58.919Z,77.91
2023-12-09T12:14:26.728Z,78.74
2023-12-09T12:16:53.355Z,77.82
2023-12-09T12:19:20.393Z,78.23
2023-12-09T12:21:54.157Z,78.07
2023-12-09T12:24:21.340Z,77.53
2023-12-09T12:26:49.527Z,77.04
2023-12-09T12:29:22.575Z,78.03
2023-12-09T12:31:50.947Z,77.96
2023-12-09T12:34:20.228Z,77.11
2023-12-09T12:36:48.414Z,77.76
2023-12-09T12:39:16.726Z,78.07
2023-12-09T12:41:44.518Z,77.56
2023-12-09T12:44:12.428Z,77.62
2023-12-09T12:46:39.168Z,77.31
2023-12-09T12:49:07.381Z,77.32
2023-12-09T12:51:34.755Z,77.90
2023-12-09T12:54:02.504Z,77.53
2023-12-09T12:56:29.389Z,77.08
2023-12-09T12:58:56.170Z,77.16
2023-12-09T13:01:23.030Z,77.66
2023-12-09T13:03:49.987Z,78.31
2023-12-09T13:06:16.847Z,78.98
2023-12-09T13:08:44.272Z,78.98
2023-12-09T13:11:10.942Z,79.84
2023-12-09T13:13:37.668Z,78.93
2023-12-09T13:16:04.705Z,79.64
2023-12-09T13:18:31.428Z,77.75
2023-12-09T13:20:59.136Z,79.21
2023-12-09T13:23:26.010Z,80.11
2023-12-09T13:25:53.124Z,80.27
2023-12-09T13:28:19.923Z,79.92
2023-12-09T13:30:46.793Z,79.57
2023-12-09T13:33:13.513Z,80.54
2023-12-09T13:35:40.223Z,79.25
2023-12-09T13:38:08.678Z,79.30
2023-12-09T13:40:35.320Z,79.15
2023-12-09T13:43:02.289Z,79.32
2023-12-09T13:45:37.497Z,79.18
2023-12-09T13:48:05.364Z,80.70
2023-12-09T13:50:32.216Z,80.44
2023-12-09T13:52:59.090Z,80.91
2023-12-09T13:55:27.665Z,81.43
2023-12-09T13:57:54.468Z,80.98
2023-12-09T14:00:21.359Z,81.23
2023-12-09T14:02:48.102Z,81.88
2023-12-09T14:05:15.950Z,82.02
2023-12-09T14:07:48.166Z,81.84
2023-12-09T14:10:14.940Z,81.50
2023-12-09T14:12:45.623Z,81.50
2023-12-09T14:15:13.005Z,81.97
2023-12-09T14:17:44.894Z,82.18
2023-12-09T14:20:13.753Z,82.56
2023-12-09T14:22:40.493Z,83.42
2023-12-09T14:25:07.370Z,83.29
2023-12-09T14:27:35.494Z,83.11
2023-12-09T14:30:02.693Z,83.08
2023-12-09T14:32:29.553Z,82.38
2023-12-09T14:34:56.433Z,82.42
2023-12-09T14:37:23.459Z,82.46
2023-12-09T14:39:50.040Z,82.72
2023-12-09T14:42:16.921Z,82.79
2023-12-09T14:44:43.742Z,83.35
2023-12-09T14:52:45.008Z,83.92
2023-12-09T15:09:18.271Z,85.52
2023-12-09T15:27:14.246Z,86.37
2023-12-09T15:37:15.821Z,86.36
2023-12-09T15:48:06.912Z,85.87
2023-12-09T15:50:45.070Z,85.93
2023-12-09T15:58:45.130Z,85.29
2023-12-09T16:01:17.031Z,85.80
2023-12-09T16:03:47.984Z,85.98
2023-12-09T16:06:23.797Z,86.68
2023-12-09T16:08:55.702Z,86.89
2023-12-09T16:19:53.736Z,87.61
2023-12-09T16:22:23.837Z,88.17
2023-12-09T16:24:50.820Z,88.30
2023-12-09T16:27:18.094Z,87.95
2023-12-09T16:29:45.277Z,88.20
2023-12-09T16:32:13.627Z,88.05
2023-12-09T16:34:40.698Z,88.60
2023-12-09T16:37:08.779Z,88.68
2023-12-09T16:39:35.589Z,88.65
2023-12-09T16:42:02.235Z,88.50
2023-12-09T16:44:29.115Z,88.79
2023-12-09T16:46:57.339Z,88.96
2023-12-09T16:49:24.300Z,88.65
2023-12-09T16:51:51.166Z,88.40
2023-12-09T16:54:17.930Z,88.36
2023-12-09T16:56:45.125Z,88.98
2023-12-09T16:59:12.338Z,88.59
2023-12-09T17:01:39.716Z,88.64
2023-12-09T17:04:06.817Z,89.15
2023-12-09T17:06:34.478Z,89.15
2023-12-09T17:09:04.502Z,88.98
2023-12-09T17:11:46.165Z,88.88
2023-12-09T17:19:36.202Z,89.68
2023-12-09T17:22:03.205Z,89.64
2023-12-09T17:24:30.702Z,90.19
2023-12-09T17:26:59.360Z,90.30
2023-12-09T17:29:26.149Z,90.06
2023-12-09T17:31:56.578Z,90.05
2023-12-09T17:34:23.387Z,90.66
2023-12-09T17:36:50.512Z,89.90
2023-12-09T17:39:17.680Z,89.88
2023-12-09T17:41:44.503Z,89.65
2023-12-09T17:44:11.381Z,89.69
2023-12-09T17:46:38.266Z,89.93
2023-12-09T17:49:08.686Z,89.79
2023-12-09T17:51:35.396Z,89.74
2023-12-09T17:54:03.367Z,89.84
2023-12-09T17:56:30.099Z,90.45
2023-12-09T17:58:56.707Z,90.15
2023-12-09T18:01:24.089Z,90.89
2023-12-09T18:03:50.962Z,90.79
2023-12-09T18:06:18.784Z,91.16
2023-12-09T18:08:45.741Z,90.82
2023-12-09T18:11:12.682Z,90.41
2023-12-09T18:13:39.551Z,90.42
2023-12-09T18:16:07.132Z,90.29
2023-12-09T18:18:33.856Z,90.59
2023-12-09T18:21:00.660Z,90.88
2023-12-09T18:23:27.301Z,91.11
2023-12-09T18:25:54.357Z,90.89
2023-12-09T18:28:21.036Z,90.99
2023-12-09T18:30:47.904Z,91.11
2023-12-09T18:33:14.766Z,90.91
2023-12-09T18:40:33.146Z,90.74
2023-12-09T18:43:12.953Z,90.73
2023-12-09T18:49:18.462Z,90.26
2023-12-09T18:52:05.498Z,90.22
2023-12-09T18:54:46.701Z,90.27
2023-12-09T18:57:28.736Z,90.16
2023-12-09T18:59:56.914Z,90.11
2023-12-09T19:02:23.821Z,90.32
2023-12-09T19:04:51.012Z,90.17
2023-12-09T19:07:19.531Z,90.32
2023-12-09T19:09:46.761Z,89.89
2023-12-09T19:12:14.339Z,90.00
2023-12-09T19:14:44.623Z,90.32
2023-12-09T19:17:11.499Z,90.75
2023-12-09T19:19:38.546Z,90.40
2023-12-09T19:22:05.389Z,89.93
2023-12-09T19:24:32.191Z,90.00
2023-12-09T19:27:00.128Z,90.12
2023-12-09T19:29:26.792Z,89.82
2023-12-09T19:31:53.623Z,90.22
2023-12-09T19:34:20.546Z,90.21
2023-12-09T19:36:47.515Z,90.22
2023-12-09T19:39:16.974Z,90.49
2023-12-09T19:41:43.724Z,90.46
2023-12-09T19:44:10.390Z,90.42
2023-12-09T19:46:37.340Z,90.38
2023-12-09T19:49:05.061Z,90.28
2023-12-09T19:51:31.780Z,90.44
2023-12-09T19:53:58.716Z,90.61
2023-12-09T19:56:25.249Z,90.69
2023-12-09T19:58:52.279Z,90.95
2023-12-09T20:01:19.049Z,90.89
2023-12-09T20:03:45.957Z,91.18
2023-12-09T20:06:13.199Z,91.58
2023-12-09T20:08:39.909Z,91.84
2023-12-09T20:11:06.753Z,92.20
2023-12-09T20:13:33.745Z,91.61
2023-12-09T20:16:01.593Z,91.74
2023-12-09T20:18:28.562Z,92.03
2023-12-09T20:20:55.292Z,92.30
2023-12-09T20:23:22.023Z,92.34
2023-12-09T20:25:48.725Z,92.11
2023-12-09T20:28:15.535Z,91.98
2023-12-09T20:30:43.560Z,91.70
2023-12-09T20:37:52.029Z,89.74
2023-12-09T20:43:53.136Z,88.13
2023-12-09T20:50:31.177Z,87.25
2023-12-09T20:53:08.079Z,86.10
2023-12-09T20:55:34.986Z,85.10
2023-12-09T20:58:01.985Z,84.55
2023-12-09T21:00:28.653Z,84.20
2023-12-09T21:02:55.629Z,84.19
2023-12-09T21:05:24.520Z,83.82
2023-12-09T21:07:55.430Z,81.38
2023-12-09T21:10:28.663Z,81.15
2023-12-09T21:12:58.809Z,81.16
2023-12-09T21:15:28.118Z,81.48
2023-12-09T21:17:54.941Z,80.76
2023-12-09T21:20:21.997Z,80.17
2023-12-09T21:22:52.029Z,80.63
2023-12-09T21:25:19.807Z,80.26
2023-12-09T21:27:47.316Z,81.14
2023-12-09T21:30:14.338Z,80.78
2023-12-09T21:32:43.158Z,80.41
2023-12-09T21:35:10.351Z,80.59
2023-12-09T21:37:37.183Z,79.46
2023-12-09T21:40:06.194Z,80.11
2023-12-09T21:42:33.292Z,80.19
2023-12-09T21:45:00.218Z,80.84
2023-12-09T21:47:28.778Z,79.76
2023-12-09T21:49:56.048Z,80.18
2023-12-09T21:52:23.658Z,79.75
2023-12-09T21:54:51.006Z,80.17
2023-12-09T21:57:17.920Z,79.39
2023-12-09T21:59:45.021Z,80.18
2023-12-09T22:02:11.817Z,80.63
2023-12-09T22:04:39.644Z,80.11
2023-12-09T22:07:07.650Z,80.32
2023-12-09T22:09:34.414Z,79.96
2023-12-09T22:12:01.869Z,80.37
2023-12-09T22:14:30.999Z,80.03
2023-12-09T22:16:58.164Z,80.00
2023-12-09T22:19:27.448Z,79.66
2023-12-09T22:21:54.282Z,80.01
2023-12-09T22:24:21.059Z,79.74
2023-12-09T22:26:48.571Z,79.89
2023-12-09T22:29:15.350Z,79.01
2023-12-09T22:31:45.217Z,79.10
2023-12-09T22:34:12.279Z,79.35
2023-12-09T22:36:39.549Z,79.30
2023-12-09T22:39:09.571Z,78.54
2023-12-09T22:41:36.679Z,78.16
2023-12-09T22:44:04.193Z,77.87
2023-12-09T22:46:32.166Z,78.33
2023-12-09T22:49:00.085Z,76.71
2023-12-09T22:51:27.978Z,77.26
2023-12-09T22:53:55.178Z,77.08
2023-12-09T22:56:27.246Z,77.37
2023-12-09T22:58:56.370Z,76.79
2023-12-09T23:01:24.622Z,77.21
2023-12-09T23:03:52.628Z,76.92
2023-12-09T23:06:21.798Z,76.19
2023-12-09T23:08:49.002Z,75.57
2023-12-09T23:11:16.155Z,76.25
2023-12-09T23:13:42.898Z,76.56
2023-12-09T23:16:11.530Z,76.17
2023-12-09T23:18:40.321Z,75.96
2023-12-09T23:21:08.202Z,76.24
2023-12-09T23:23:35.750Z,76.19
2023-12-09T23:26:02.774Z,76.17
2023-12-09T23:28:29.561Z,76.16
2023-12-09T23:30:56.413Z,76.11
2023-12-09T23:33:26.226Z,75.75
2023-12-09T23:35:52.991Z,76.30
2023-12-09T23:38:20.165Z,76.05
2023-12-09T23:40:46.931Z,75.83
2023-12-09T23:43:13.648Z,75.33
2023-12-09T23:45:40.401Z,74.51
2023-12-09T23:48:08.077Z,73.97
2023-12-09T23:50:35.228Z,73.02
2023-12-09T23:53:04.425Z,73.71
2023-12-09T23:55:31.022Z,73.91
2023-12-09T23:57:57.671Z,73.89
